createdAt,value
2022-12-15T00:00:36.498Z,99.99
2022-12-15T00:01:36.463Z,99.99
2022-12-15T00:02:36.624Z,99.99
2022-12-15T00:03:37.125Z,99.99
2022-12-15T00:04:36.495Z,99.99
2022-12-15T00:05:36.507Z,99.99
2022-12-15T00:06:36.558Z,99.99
2022-12-15T00:07:36.524Z,99.99
2022-12-15T00:08:36.539Z,99.99
2022-12-15T00:09:36.543Z,99.99
2022-12-15T00:10:36.557Z,99.99
2022-12-15T00:11:36.562Z,99.99
2022-12-15T00:12:36.573Z,99.99
2022-12-15T00:13:36.585Z,99.99
2022-12-15T00:14:36.592Z,99.99
2022-12-15T00:15:36.646Z,99.99
2022-12-15T00:16:36.694Z,99.99
2022-12-15T00:17:36.621Z,99.99
2022-12-15T00:18:36.638Z,99.99
2022-12-15T00:19:36.644Z,99.99
2022-12-15T00:20:36.655Z,99.99
2022-12-15T00:21:36.664Z,99.99
2022-12-15T00:22:36.673Z,99.99
2022-12-15T00:23:36.685Z,99.99
2022-12-15T00:24:36.698Z,99.99
2022-12-15T00:25:36.704Z,99.99
2022-12-15T00:26:36.711Z,99.99
2022-12-15T00:27:36.724Z,99.99
2022-12-15T00:28:36.732Z,99.99
2022-12-15T00:29:36.744Z,99.99
2022-12-15T00:30:36.755Z,99.99
2022-12-15T00:31:36.798Z,99.99
2022-12-15T00:32:36.770Z,99.99
2022-12-15T00:33:36.789Z,99.99
2022-12-15T00:34:36.796Z,99.99
2022-12-15T00:35:36.805Z,99.99
2022-12-15T00:36:36.812Z,99.99
2022-12-15T00:37:36.825Z,99.99
2022-12-15T00:38:36.840Z,99.99
2022-12-15T00:39:36.839Z,99.99
2022-12-15T00:40:36.863Z,99.99
2022-12-15T00:41:36.864Z,99.99
2022-12-15T00:42:36.872Z,99.99
2022-12-15T00:43:36.882Z,99.99
2022-12-15T00:44:36.897Z,99.99
2022-12-15T00:45:36.901Z,99.99
2022-12-15T00:46:37.005Z,99.99
2022-12-15T00:47:36.920Z,99.99
2022-12-15T00:48:36.937Z,99.99
2022-12-15T00:49:36.945Z,99.99
2022-12-15T00:50:36.952Z,99.99
2022-12-15T00:51:36.959Z,99.99
2022-12-15T00:52:36.977Z,99.99
2022-12-15T00:53:36.986Z,99.99
2022-12-15T00:54:36.996Z,99.99
2022-12-15T00:55:37.004Z,99.99
2022-12-15T00:56:37.021Z,99.99
2022-12-15T00:57:37.020Z,99.99
2022-12-15T00:58:37.033Z,99.99
2022-12-15T00:59:37.041Z,99.99
2022-12-15T01:00:37.051Z,99.99
2022-12-15T01:01:37.288Z,99.99
2022-12-15T01:02:37.237Z,99.99
2022-12-15T01:03:37.673Z,99.99
2022-12-15T01:04:37.092Z,99.99
2022-12-15T01:05:37.098Z,99.99
2022-12-15T01:06:37.113Z,99.99
2022-12-15T01:07:37.121Z,99.99
2022-12-15T01:08:37.132Z,99.99
2022-12-15T01:09:37.139Z,99.99
2022-12-15T01:10:37.162Z,99.99
2022-12-15T01:11:37.160Z,99.99
2022-12-15T01:12:37.183Z,99.99
2022-12-15T01:13:37.182Z,99.99
2022-12-15T01:14:37.190Z,99.99
2022-12-15T01:15:37.202Z,99.99
2022-12-15T01:16:37.261Z,99.99
2022-12-15T01:17:37.221Z,99.99
2022-12-15T01:18:37.237Z,99.99
2022-12-15T01:19:37.240Z,99.99
2022-12-15T01:20:37.248Z,99.99
2022-12-15T01:21:37.261Z,99.99
2022-12-15T01:22:37.269Z,99.99
2022-12-15T01:23:37.278Z,99.99
2022-12-15T01:24:37.291Z,99.99
2022-12-15T01:25:37.299Z,99.99
2022-12-15T01:26:37.309Z,99.99
2022-12-15T01:27:37.320Z,99.99
2022-12-15T01:28:37.334Z,99.99
2022-12-15T01:29:37.339Z,99.99
2022-12-15T01:30:37.349Z,99.99
2022-12-15T01:31:37.383Z,99.99
2022-12-15T01:32:41.403Z,99.99
2022-12-15T01:33:37.378Z,99.99
2022-12-15T01:34:37.393Z,99.99
2022-12-15T01:35:37.404Z,99.99
2022-12-15T01:36:37.414Z,99.99
2022-12-15T01:37:37.422Z,99.99
2022-12-15T01:38:37.435Z,99.99
2022-12-15T01:39:37.438Z,99.99
2022-12-15T01:40:37.457Z,99.99
2022-12-15T01:41:37.460Z,99.99
2022-12-15T01:42:37.473Z,99.99
2022-12-15T01:43:37.478Z,99.99
2022-12-15T01:44:37.498Z,99.99
2022-12-15T01:45:37.503Z,99.99
2022-12-15T01:46:37.563Z,99.99
2022-12-15T01:47:37.525Z,99.99
2022-12-15T01:48:37.529Z,99.99
2022-12-15T01:49:37.541Z,99.99
2022-12-15T01:50:37.554Z,99.99
2022-12-15T01:51:37.558Z,99.99
2022-12-15T01:52:37.572Z,99.99
2022-12-15T01:53:37.583Z,99.99
2022-12-15T01:54:37.592Z,99.99
2022-12-15T01:55:37.604Z,99.99
2022-12-15T01:56:38.173Z,99.99
2022-12-15T01:57:37.624Z,99.99
2022-12-15T01:58:37.634Z,99.99
2022-12-15T01:59:37.645Z,99.99
2022-12-15T02:00:37.698Z,99.99
2022-12-15T02:01:37.822Z,99.99
2022-12-15T02:02:40.431Z,99.99
2022-12-15T02:03:37.712Z,99.99
2022-12-15T02:04:37.698Z,99.99
2022-12-15T02:05:37.706Z,99.99
2022-12-15T02:06:37.717Z,99.99
2022-12-15T02:07:37.724Z,99.99
2022-12-15T02:08:37.737Z,99.99
2022-12-15T02:09:37.750Z,99.99
2022-12-15T02:10:37.759Z,99.99
2022-12-15T02:11:37.769Z,99.99
2022-12-15T02:12:37.779Z,99.99
2022-12-15T02:13:37.797Z,99.99
2022-12-15T02:14:37.799Z,99.99
2022-12-15T02:15:37.808Z,99.99
2022-12-15T02:16:37.864Z,99.99
2022-12-15T02:17:37.832Z,99.99
2022-12-15T02:18:37.842Z,99.99
2022-12-15T02:19:37.850Z,99.99
2022-12-15T02:20:37.865Z,99.99
2022-12-15T02:21:37.876Z,99.99
2022-12-15T02:22:37.886Z,99.99
2022-12-15T02:23:37.894Z,99.99
2022-12-15T02:24:37.908Z,99.99
2022-12-15T02:25:37.918Z,99.99
2022-12-15T02:26:37.925Z,99.99
2022-12-15T02:27:37.937Z,99.99
2022-12-15T02:28:37.949Z,99.99
2022-12-15T02:29:37.961Z,99.99
2022-12-15T02:30:37.971Z,99.99
2022-12-15T02:31:38.023Z,99.99
2022-12-15T02:32:37.993Z,99.99
2022-12-15T02:33:38.003Z,99.99
2022-12-15T02:34:38.014Z,99.99
2022-12-15T02:35:38.023Z,99.99
2022-12-15T02:36:38.201Z,99.99
2022-12-15T02:37:38.047Z,99.99
2022-12-15T02:38:38.060Z,99.99
2022-12-15T02:39:38.070Z,99.99
2022-12-15T02:40:38.081Z,99.99
2022-12-15T02:41:38.100Z,99.99
2022-12-15T02:42:38.103Z,99.99
2022-12-15T02:43:38.109Z,99.99
2022-12-15T02:44:38.121Z,99.99
2022-12-15T02:45:38.239Z,99.99
2022-12-15T02:46:38.142Z,99.99
2022-12-15T02:47:38.150Z,99.99
2022-12-15T02:48:38.169Z,99.99
2022-12-15T02:49:38.175Z,99.99
2022-12-15T02:50:38.187Z,99.99
2022-12-15T02:51:38.198Z,99.99
2022-12-15T02:52:38.204Z,99.99
2022-12-15T02:53:38.221Z,99.99
2022-12-15T02:54:38.230Z,99.99
2022-12-15T02:55:38.239Z,99.99
2022-12-15T02:56:38.250Z,99.99
2022-12-15T02:57:38.258Z,99.99
2022-12-15T02:58:38.274Z,99.99
2022-12-15T02:59:38.279Z,99.99
2022-12-15T03:00:38.352Z,99.99
2022-12-15T03:01:38.478Z,99.99
2022-12-15T03:02:38.437Z,99.99
2022-12-15T03:03:38.441Z,99.99
2022-12-15T03:04:38.335Z,99.99
2022-12-15T03:05:38.344Z,99.99
2022-12-15T03:06:38.356Z,99.99
2022-12-15T03:07:38.366Z,99.99
2022-12-15T03:08:38.377Z,99.99
2022-12-15T03:09:38.385Z,99.99
2022-12-15T03:10:38.397Z,99.99
2022-12-15T03:11:38.409Z,99.99
2022-12-15T03:12:38.419Z,99.99
2022-12-15T03:13:38.432Z,99.99
2022-12-15T03:14:38.441Z,99.99
2022-12-15T03:15:38.446Z,99.99
2022-12-15T03:16:38.522Z,99.99
2022-12-15T03:17:38.474Z,99.99
2022-12-15T03:18:38.482Z,99.99
2022-12-15T03:19:38.493Z,99.99
2022-12-15T03:20:38.513Z,99.99
2022-12-15T03:21:38.514Z,99.99
2022-12-15T03:22:38.525Z,99.99
2022-12-15T03:23:38.545Z,99.99
2022-12-15T03:24:38.544Z,99.99
2022-12-15T03:25:38.552Z,99.99
2022-12-15T03:26:38.565Z,99.99
2022-12-15T03:27:38.575Z,99.99
2022-12-15T03:28:38.588Z,99.99
2022-12-15T03:29:38.602Z,99.99
2022-12-15T03:30:38.605Z,99.99
2022-12-15T03:31:38.703Z,99.99
2022-12-15T03:32:38.627Z,99.99
2022-12-15T03:33:38.639Z,99.99
2022-12-15T03:34:38.658Z,99.99
2022-12-15T03:35:38.655Z,99.99
2022-12-15T03:36:38.673Z,99.99
2022-12-15T03:37:38.680Z,99.99
2022-12-15T03:38:38.692Z,99.99
2022-12-15T03:39:38.697Z,99.99
2022-12-15T03:40:38.718Z,99.99
2022-12-15T03:41:38.720Z,99.99
2022-12-15T03:42:38.735Z,99.99
2022-12-15T03:43:38.741Z,99.99
2022-12-15T03:44:38.753Z,99.99
2022-12-15T03:45:38.844Z,99.99
2022-12-15T03:46:38.777Z,99.99
2022-12-15T03:47:38.786Z,99.99
2022-12-15T03:48:38.811Z,99.99
2022-12-15T03:49:38.804Z,99.99
2022-12-15T03:50:38.817Z,99.99
2022-12-15T03:51:38.825Z,99.99
2022-12-15T03:52:38.841Z,99.99
2022-12-15T03:53:38.848Z,99.99
2022-12-15T03:54:38.857Z,99.99
2022-12-15T03:55:38.869Z,99.99
2022-12-15T03:56:38.881Z,99.99
2022-12-15T03:57:38.891Z,99.99
2022-12-15T03:58:38.908Z,99.99
2022-12-15T03:59:38.912Z,99.99
2022-12-15T04:00:38.925Z,99.99
2022-12-15T04:01:39.041Z,99.99
2022-12-15T04:02:39.096Z,99.99
2022-12-15T04:03:39.000Z,99.99
2022-12-15T04:04:38.971Z,99.99
2022-12-15T04:05:38.981Z,99.99
2022-12-15T04:06:38.988Z,99.99
2022-12-15T04:07:39.001Z,99.99
2022-12-15T04:08:39.016Z,99.99
2022-12-15T04:09:39.025Z,99.99
2022-12-15T04:10:39.036Z,99.99
2022-12-15T04:11:39.048Z,99.99
2022-12-15T04:12:39.060Z,99.99
2022-12-15T04:15:11.252Z,99.99
2022-12-15T04:16:13.629Z,99.99
2022-12-15T04:18:14.690Z,99.99
2022-12-15T04:19:14.698Z,99.99
2022-12-15T04:21:19.174Z,99.99
2022-12-15T04:22:18.675Z,99.99
2022-12-15T04:24:22.663Z,99.99
2022-12-15T04:25:22.668Z,99.99
2022-12-15T04:27:27.139Z,99.99
2022-12-15T04:28:26.649Z,99.99
2022-12-15T04:30:19.595Z,99.99
2022-12-15T04:31:19.617Z,99.99
2022-12-15T04:33:29.067Z,99.99
2022-12-15T04:34:23.549Z,99.99
2022-12-15T04:36:27.533Z,99.99
2022-12-15T04:37:27.538Z,99.99
2022-12-15T04:39:32.013Z,99.99
2022-12-15T04:40:31.556Z,99.99
2022-12-15T04:42:35.518Z,99.99
2022-12-15T04:43:35.519Z,99.99
2022-12-15T04:45:39.993Z,99.99
2022-12-15T04:46:39.630Z,99.99
2022-12-15T04:48:43.498Z,99.99
2022-12-15T04:49:43.498Z,99.99
2022-12-15T04:51:47.968Z,99.99
2022-12-15T04:52:47.492Z,99.99
2022-12-15T04:54:51.483Z,99.99
2022-12-15T04:55:51.486Z,99.99
2022-12-15T04:57:55.960Z,99.99
2022-12-15T04:58:55.471Z,99.99
2022-12-15T05:00:59.475Z,99.99
2022-12-15T05:01:59.573Z,99.99
2022-12-15T05:04:03.965Z,99.99
2022-12-15T05:05:03.445Z,99.99
2022-12-15T05:07:07.430Z,99.99
2022-12-15T05:08:07.432Z,99.99
2022-12-15T05:10:03.428Z,99.99
2022-12-15T05:11:00.364Z,99.99
2022-12-15T05:13:04.352Z,99.99
2022-12-15T05:14:04.344Z,99.99
2022-12-15T05:16:08.871Z,99.99
2022-12-15T05:17:08.417Z,99.99
2022-12-15T05:19:12.486Z,99.99
2022-12-15T05:20:12.333Z,99.99
2022-12-15T05:22:16.810Z,99.99
2022-12-15T05:23:16.319Z,99.99
2022-12-15T05:25:20.304Z,99.99
2022-12-15T05:26:20.308Z,99.99
2022-12-15T05:28:24.783Z,99.99
2022-12-15T05:29:24.298Z,99.99
2022-12-15T05:31:28.328Z,99.99
2022-12-15T05:32:28.281Z,99.99
2022-12-15T05:34:32.762Z,99.99
2022-12-15T05:35:32.270Z,99.99
2022-12-15T05:37:36.255Z,99.99
2022-12-15T05:38:36.258Z,99.99
2022-12-15T05:40:29.733Z,99.99
2022-12-15T05:41:29.181Z,99.99
2022-12-15T05:43:33.798Z,99.99
2022-12-15T05:44:33.159Z,99.99
2022-12-15T05:46:37.696Z,99.99
2022-12-15T05:47:37.144Z,99.99
2022-12-15T05:49:30.060Z,99.99
2022-12-15T05:50:30.059Z,99.99
2022-12-15T05:52:34.548Z,99.99
2022-12-15T05:53:34.378Z,99.99
2022-12-15T05:54:34.072Z,99.99
2022-12-15T05:55:34.070Z,99.99
2022-12-15T05:56:34.077Z,99.99
2022-12-15T05:57:34.086Z,99.99
2022-12-15T05:58:34.098Z,99.99
2022-12-15T05:59:34.109Z,99.99
2022-12-15T06:00:34.118Z,99.99
2022-12-15T06:01:34.143Z,99.99
2022-12-15T06:02:34.193Z,99.99
2022-12-15T06:03:34.507Z,99.99
2022-12-15T06:04:34.204Z,99.99
2022-12-15T06:05:34.171Z,99.99
2022-12-15T06:06:34.184Z,99.99
2022-12-15T06:07:34.201Z,99.99
2022-12-15T06:08:34.201Z,99.99
2022-12-15T06:09:34.212Z,99.99
2022-12-15T06:10:34.225Z,99.99
2022-12-15T06:11:34.233Z,99.99
2022-12-15T06:12:34.242Z,99.99
2022-12-15T06:13:34.513Z,99.99
2022-12-15T06:14:34.262Z,99.99
2022-12-15T06:15:34.273Z,99.99
2022-12-15T06:16:36.340Z,99.99
2022-12-15T06:17:34.296Z,99.99
2022-12-15T06:18:34.308Z,99.99
2022-12-15T06:19:34.317Z,99.99
2022-12-15T06:20:34.327Z,99.99
2022-12-15T06:21:34.338Z,99.99
2022-12-15T06:22:34.343Z,99.99
2022-12-15T06:23:34.548Z,99.99
2022-12-15T06:24:34.366Z,99.99
2022-12-15T06:25:34.378Z,99.99
2022-12-15T06:26:34.388Z,99.99
2022-12-15T06:27:41.566Z,99.99
2022-12-15T06:29:27.867Z,99.99
2022-12-15T06:30:27.308Z,99.99
2022-12-15T06:32:31.297Z,99.99
2022-12-15T06:33:31.627Z,99.99
2022-12-15T06:35:35.774Z,99.99
2022-12-15T06:36:35.284Z,99.99
2022-12-15T06:38:39.258Z,99.99
2022-12-15T06:39:39.261Z,99.99
2022-12-15T06:41:44.294Z,99.99
2022-12-15T06:42:43.746Z,99.99
2022-12-15T06:43:43.757Z,99.99
2022-12-15T06:44:43.765Z,99.99
2022-12-15T06:45:43.771Z,99.99
2022-12-15T06:46:43.833Z,99.99
2022-12-15T06:47:43.792Z,99.99
2022-12-15T06:48:43.803Z,99.99
2022-12-15T06:49:43.818Z,99.99
2022-12-15T06:50:43.824Z,99.99
2022-12-15T06:51:43.830Z,99.99
2022-12-15T06:52:43.849Z,99.99
2022-12-15T06:53:43.854Z,99.99
2022-12-15T06:54:43.870Z,99.99
2022-12-15T06:55:43.873Z,99.99
2022-12-15T06:56:43.888Z,99.99
2022-12-15T06:57:43.897Z,99.99
2022-12-15T06:58:43.907Z,99.99
2022-12-15T06:59:43.914Z,99.99
2022-12-15T07:00:43.926Z,99.99
2022-12-15T07:01:44.170Z,99.99
2022-12-15T07:02:44.130Z,99.99
2022-12-15T07:03:44.107Z,99.99
2022-12-15T07:04:43.967Z,99.99
2022-12-15T07:05:43.974Z,99.99
2022-12-15T07:06:43.987Z,99.99
2022-12-15T07:07:43.998Z,99.99
2022-12-15T07:08:44.006Z,99.99
2022-12-15T07:09:44.020Z,99.99
2022-12-15T07:10:44.029Z,99.99
2022-12-15T07:11:44.040Z,99.99
2022-12-15T07:12:44.048Z,99.99
2022-12-15T07:13:44.059Z,99.99
2022-12-15T07:14:47.480Z,99.99
2022-12-15T07:15:44.134Z,99.99
2022-12-15T07:16:44.146Z,99.99
2022-12-15T07:17:44.107Z,99.99
2022-12-15T07:18:44.106Z,99.99
2022-12-15T07:19:44.119Z,99.99
2022-12-15T07:20:44.137Z,99.99
2022-12-15T07:21:44.139Z,99.99
2022-12-15T07:22:44.158Z,99.99
2022-12-15T07:24:00.504Z,99.99
2022-12-15T07:24:44.171Z,99.99
2022-12-15T07:25:44.178Z,99.99
2022-12-15T07:26:44.190Z,99.99
2022-12-15T07:27:44.196Z,99.99
2022-12-15T07:28:44.205Z,99.99
2022-12-15T07:29:44.218Z,99.99
2022-12-15T07:30:44.228Z,99.99
2022-12-15T07:31:44.325Z,99.99
2022-12-15T07:32:44.249Z,99.99
2022-12-15T07:33:44.257Z,99.99
2022-12-15T07:34:44.271Z,99.99
2022-12-15T07:35:44.280Z,99.99
2022-12-15T07:36:49.988Z,99.99
2022-12-15T07:37:44.302Z,99.99
2022-12-15T07:38:44.312Z,99.99
2022-12-15T07:39:44.319Z,99.99
2022-12-15T07:40:44.330Z,99.99
2022-12-15T07:41:44.338Z,99.99
2022-12-15T07:42:44.358Z,99.99
2022-12-15T07:43:44.359Z,99.99
2022-12-15T07:44:44.371Z,99.99
2022-12-15T07:45:49.754Z,99.99
2022-12-15T07:46:44.393Z,99.99
2022-12-15T07:47:44.401Z,99.99
2022-12-15T07:48:44.416Z,99.99
2022-12-15T07:49:44.421Z,99.99
2022-12-15T07:50:44.431Z,99.99
2022-12-15T07:51:44.448Z,99.99
2022-12-15T07:52:44.452Z,99.99
2022-12-15T07:53:44.464Z,99.99
2022-12-15T07:54:44.479Z,99.99
2022-12-15T07:56:06.045Z,99.99
2022-12-15T07:56:44.495Z,99.99
2022-12-15T07:57:44.507Z,99.99
2022-12-15T07:58:44.516Z,99.99
2022-12-15T07:59:44.532Z,99.99
2022-12-15T08:00:48.784Z,99.99
2022-12-15T08:01:44.780Z,99.99
2022-12-15T08:02:44.842Z,99.99
2022-12-15T08:03:44.657Z,99.99
2022-12-15T08:04:44.578Z,99.99
2022-12-15T08:05:44.587Z,99.99
2022-12-15T08:06:44.597Z,99.99
2022-12-15T08:07:44.609Z,99.99
2022-12-15T08:08:44.628Z,99.99
2022-12-15T08:09:44.628Z,99.99
2022-12-15T08:10:44.639Z,99.99
2022-12-15T08:11:44.651Z,99.99
2022-12-15T08:12:44.662Z,99.99
2022-12-15T08:14:44.682Z,99.99
2022-12-15T08:15:44.691Z,99.99
2022-12-15T08:16:44.753Z,99.99
2022-12-15T08:17:44.712Z,99.99
2022-12-15T08:18:44.724Z,99.99
2022-12-15T08:19:44.737Z,99.99
2022-12-15T08:20:44.745Z,99.99
2022-12-15T08:21:44.762Z,99.99
2022-12-15T08:22:44.766Z,99.99
2022-12-15T08:23:44.777Z,99.99
2022-12-15T08:24:44.786Z,99.99
2022-12-15T08:25:44.799Z,99.99
2022-12-15T08:26:44.812Z,99.99
2022-12-15T08:27:44.822Z,99.99
2022-12-15T08:28:44.840Z,99.99
2022-12-15T08:29:52.692Z,99.99
2022-12-15T08:30:44.861Z,99.99
2022-12-15T08:31:45.003Z,99.99
2022-12-15T08:32:50.126Z,99.99
2022-12-15T08:33:44.884Z,99.99
2022-12-15T08:34:44.904Z,99.99
2022-12-15T08:35:56.732Z,99.99
2022-12-15T08:36:44.914Z,99.99
2022-12-15T08:37:44.939Z,99.99
2022-12-15T08:38:44.948Z,99.99
2022-12-15T08:39:44.946Z,99.99
2022-12-15T08:40:44.959Z,99.99
2022-12-15T08:41:44.975Z,99.99
2022-12-15T08:42:44.990Z,99.99
2022-12-15T08:43:48.493Z,99.99
2022-12-15T08:44:45.026Z,99.99
2022-12-15T08:45:45.114Z,99.99
2022-12-15T08:46:45.037Z,99.99
2022-12-15T08:47:45.152Z,99.99
2022-12-15T08:48:45.077Z,99.99
2022-12-15T08:49:45.057Z,99.99
2022-12-15T08:50:45.072Z,99.99
2022-12-15T08:51:45.087Z,99.99
2022-12-15T08:53:06.500Z,99.99
2022-12-15T08:53:45.505Z,99.99
2022-12-15T08:54:45.117Z,99.99
2022-12-15T08:55:45.128Z,99.99
2022-12-15T08:56:45.135Z,99.99
2022-12-15T08:57:45.149Z,99.99
2022-12-15T08:58:45.161Z,99.99
2022-12-15T08:59:45.192Z,99.99
2022-12-15T09:00:45.233Z,99.99
2022-12-15T09:01:45.375Z,99.99
2022-12-15T09:02:45.244Z,99.99
2022-12-15T09:03:45.220Z,99.99
2022-12-15T09:04:45.329Z,99.99
2022-12-15T09:05:45.242Z,99.99
2022-12-15T09:06:50.411Z,99.99
2022-12-15T09:07:45.395Z,99.99
2022-12-15T09:08:45.275Z,99.99
2022-12-15T09:09:45.288Z,99.99
2022-12-15T09:10:45.301Z,99.99
2022-12-15T09:11:45.309Z,99.99
2022-12-15T09:12:45.323Z,99.99
2022-12-15T09:13:45.338Z,99.99
2022-12-15T09:14:45.360Z,99.99
2022-12-15T09:16:08.861Z,99.99
2022-12-15T09:16:45.429Z,99.99
2022-12-15T09:17:45.386Z,99.99
2022-12-15T09:18:45.447Z,99.99
2022-12-15T09:19:45.406Z,99.99
2022-12-15T09:20:45.421Z,99.99
2022-12-15T09:21:45.432Z,99.99
2022-12-15T09:22:45.446Z,99.99
2022-12-15T09:23:45.548Z,99.99
2022-12-15T09:24:45.470Z,99.99
2022-12-15T09:25:45.474Z,99.99
2022-12-15T09:26:45.515Z,99.99
2022-12-15T09:27:45.504Z,99.99
2022-12-15T09:28:45.520Z,99.99
2022-12-15T09:29:45.534Z,99.99
2022-12-15T09:30:45.600Z,99.99
2022-12-15T09:31:45.553Z,99.99
2022-12-15T09:32:45.567Z,99.99
2022-12-15T09:33:45.575Z,99.99
2022-12-15T09:34:45.588Z,99.99
2022-12-15T09:35:45.653Z,99.99
2022-12-15T09:36:45.615Z,99.99
2022-12-15T09:37:51.442Z,99.99
2022-12-15T09:38:45.639Z,99.99
2022-12-15T09:39:45.668Z,99.99
2022-12-15T09:40:45.670Z,99.99
2022-12-15T09:41:45.677Z,99.99
2022-12-15T09:42:46.285Z,99.99
2022-12-15T09:43:47.519Z,99.99
2022-12-15T09:44:45.713Z,99.99
2022-12-15T09:45:45.952Z,99.99
2022-12-15T09:46:50.347Z,99.99
2022-12-15T09:47:45.750Z,99.99
2022-12-15T09:48:45.781Z,99.99
2022-12-15T09:49:45.780Z,99.99
2022-12-15T09:50:45.800Z,99.99
2022-12-15T09:51:45.823Z,99.99
2022-12-15T09:52:45.821Z,99.99
2022-12-15T09:53:54.521Z,99.99
2022-12-15T09:54:45.871Z,99.99
2022-12-15T09:55:45.931Z,99.99
2022-12-15T09:56:49.706Z,99.99
2022-12-15T09:57:45.890Z,99.99
2022-12-15T09:58:45.892Z,99.99
2022-12-15T09:59:45.900Z,99.99
2022-12-15T10:00:48.921Z,99.99
2022-12-15T10:01:45.969Z,99.99
2022-12-15T10:02:46.114Z,99.99
2022-12-15T10:03:46.100Z,99.99
2022-12-15T10:04:45.993Z,99.99
2022-12-15T10:06:15.413Z,99.99
2022-12-15T10:06:45.989Z,99.99
2022-12-15T10:07:46.004Z,99.99
2022-12-15T10:08:46.014Z,99.99
2022-12-15T10:09:46.028Z,99.99
2022-12-15T10:10:46.047Z,99.99
2022-12-15T10:11:50.531Z,99.99
2022-12-15T10:12:57.635Z,99.99
2022-12-15T10:13:46.070Z,99.99
2022-12-15T10:14:46.093Z,99.99
2022-12-15T10:15:46.133Z,99.99
2022-12-15T10:16:46.132Z,99.99
2022-12-15T10:17:46.141Z,99.99
2022-12-15T10:18:46.139Z,99.99
2022-12-15T10:19:46.650Z,99.99
2022-12-15T10:20:46.164Z,99.99
2022-12-15T10:21:46.177Z,99.99
2022-12-15T10:22:46.186Z,99.99
2022-12-15T10:23:46.220Z,99.99
2022-12-15T10:25:46.227Z,99.99
2022-12-15T10:26:46.244Z,99.99
2022-12-15T10:27:46.305Z,99.99
2022-12-15T10:28:46.270Z,99.99
2022-12-15T10:29:50.884Z,99.99
2022-12-15T10:30:46.368Z,99.99
2022-12-15T10:31:46.307Z,99.99
2022-12-15T10:34:46.429Z,99.99
2022-12-15T10:35:46.355Z,99.99
2022-12-15T10:36:46.373Z,99.99
2022-12-15T10:37:46.381Z,99.99
2022-12-15T10:38:46.396Z,99.99
2022-12-15T10:39:46.408Z,99.99
2022-12-15T10:40:50.634Z,99.99
2022-12-15T10:41:46.443Z,99.99
2022-12-15T10:42:46.450Z,99.99
2022-12-15T10:43:46.955Z,99.99
2022-12-15T10:45:46.522Z,99.99
2022-12-15T10:46:46.539Z,99.99
2022-12-15T10:47:46.516Z,99.99
2022-12-15T10:48:48.745Z,99.99
2022-12-15T10:49:46.540Z,99.99
2022-12-15T10:50:46.553Z,99.99
2022-12-15T10:51:46.585Z,99.99
2022-12-15T10:52:46.594Z,99.99
2022-12-15T10:53:48.497Z,99.99
2022-12-15T10:54:46.606Z,99.99
2022-12-15T10:55:49.998Z,99.99
2022-12-15T10:56:46.627Z,99.99
2022-12-15T10:57:46.649Z,99.99
2022-12-15T10:58:46.657Z,99.99
2022-12-15T10:59:46.670Z,99.99
2022-12-15T11:00:46.684Z,99.99
2022-12-15T11:01:46.809Z,99.99
2022-12-15T11:02:46.907Z,99.99
2022-12-15T11:03:47.147Z,99.99
2022-12-15T11:04:46.737Z,99.99
2022-12-15T11:05:46.750Z,99.99
2022-12-15T11:06:46.763Z,99.99
2022-12-15T11:07:46.777Z,99.99
2022-12-15T11:08:46.790Z,99.99
2022-12-15T11:09:46.808Z,99.99
2022-12-15T11:10:46.817Z,99.99
2022-12-15T11:11:46.868Z,99.99
2022-12-15T11:12:46.844Z,99.99
2022-12-15T11:13:46.869Z,99.99
2022-12-15T11:15:47.174Z,99.99
2022-12-15T11:16:46.898Z,99.99
2022-12-15T11:17:46.910Z,99.99
2022-12-15T11:18:48.727Z,99.99
2022-12-15T11:19:46.944Z,99.99
2022-12-15T11:20:48.662Z,99.99
2022-12-15T11:21:46.970Z,99.99
2022-12-15T11:22:46.989Z,99.99
2022-12-15T11:23:48.728Z,99.99
2022-12-15T11:24:47.033Z,99.99
2022-12-15T11:25:47.032Z,99.99
2022-12-15T11:26:47.061Z,99.99
2022-12-15T11:27:47.047Z,99.99
2022-12-15T11:28:47.064Z,99.99
2022-12-15T11:29:47.077Z,99.99
2022-12-15T11:30:47.096Z,99.99
2022-12-15T11:31:47.114Z,99.99
2022-12-15T11:32:47.124Z,99.99
2022-12-15T11:33:47.133Z,99.99
2022-12-15T11:34:47.154Z,99.99
2022-12-15T11:35:47.179Z,99.99
2022-12-15T11:36:47.183Z,99.99
2022-12-15T11:37:47.185Z,99.99
2022-12-15T11:38:47.270Z,99.99
2022-12-15T11:39:47.213Z,99.99
2022-12-15T11:40:47.228Z,99.99
2022-12-15T11:41:47.265Z,99.99
2022-12-15T11:42:47.258Z,99.99
2022-12-15T11:43:48.510Z,99.99
2022-12-15T11:44:47.296Z,99.99
2022-12-15T11:45:47.299Z,99.99
2022-12-15T11:46:47.314Z,99.99
2022-12-15T11:47:47.334Z,99.99
2022-12-15T11:48:47.343Z,99.99
2022-12-15T11:49:47.362Z,99.99
2022-12-15T11:50:47.375Z,99.99
2022-12-15T11:51:47.382Z,99.99
2022-12-15T11:52:47.400Z,99.99
2022-12-15T11:53:47.414Z,99.99
2022-12-15T11:54:47.430Z,99.99
2022-12-15T11:55:47.443Z,99.99
2022-12-15T11:56:47.452Z,99.99
2022-12-15T11:57:47.471Z,99.99
2022-12-15T11:58:48.773Z,99.99
2022-12-15T11:59:47.498Z,99.99
2022-12-15T12:00:47.532Z,99.99
2022-12-15T12:01:55.267Z,99.95
2022-12-15T12:02:47.723Z,99.99
2022-12-15T12:03:47.559Z,99.89
2022-12-15T12:04:47.568Z,99.38
2022-12-15T12:05:47.579Z,99.23
2022-12-15T12:06:47.600Z,99.23
2022-12-15T12:07:47.613Z,99.42
2022-12-15T12:08:47.623Z,99.38
2022-12-15T12:09:48.675Z,99.14
2022-12-15T12:10:47.685Z,99.09
2022-12-15T12:11:48.829Z,99.09
2022-12-15T12:12:47.682Z,99.28
2022-12-15T12:13:47.695Z,99.19
2022-12-15T12:14:50.639Z,98.62
2022-12-15T12:15:47.725Z,98.52
2022-12-15T12:16:47.736Z,98.33
2022-12-15T12:17:47.753Z,98.52
2022-12-15T12:18:50.361Z,98.71
2022-12-15T12:19:50.958Z,98.52
2022-12-15T12:20:47.798Z,98.05
2022-12-15T12:21:50.941Z,98.52
2022-12-15T12:22:47.829Z,98.14
2022-12-15T12:23:47.836Z,97.67
2022-12-15T12:25:47.871Z,97.96
2022-12-15T12:26:48.570Z,97.77
2022-12-15T12:27:48.718Z,97.67
2022-12-15T12:28:48.694Z,97.77
2022-12-15T12:29:48.648Z,97.96
2022-12-15T12:30:50.483Z,97.96
2022-12-15T12:31:48.047Z,97.30
2022-12-15T12:32:47.966Z,97.01
2022-12-15T12:33:48.680Z,97.20
2022-12-15T12:34:47.995Z,96.73
2022-12-15T12:35:48.807Z,96.83
2022-12-15T12:37:48.045Z,96.26
2022-12-15T12:38:50.932Z,95.97
2022-12-15T12:39:48.070Z,95.97
2022-12-15T12:40:48.087Z,96.26
2022-12-15T12:41:48.497Z,95.78
2022-12-15T12:42:48.116Z,95.59
2022-12-15T12:43:50.277Z,95.69
2022-12-15T12:44:48.605Z,96.35
2022-12-15T12:45:50.324Z,96.07
2022-12-15T12:46:48.848Z,96.16
2022-12-15T12:47:48.185Z,96.45
2022-12-15T12:48:48.542Z,96.35
2022-12-15T12:49:50.098Z,95.88
2022-12-15T12:50:48.230Z,95.69
2022-12-15T12:51:48.246Z,95.88
2022-12-15T12:52:48.258Z,95.69
2022-12-15T12:54:50.307Z,95.40
2022-12-15T12:55:48.302Z,95.59
2022-12-15T12:56:48.832Z,95.21
2022-12-15T12:57:50.116Z,95.40
2022-12-15T12:58:48.480Z,95.59
2022-12-15T12:59:49.008Z,95.31
2022-12-15T13:00:53.673Z,95.59
2022-12-15T13:01:48.659Z,95.59
2022-12-15T13:02:48.584Z,95.12
2022-12-15T13:03:48.424Z,95.21
2022-12-15T13:04:48.435Z,95.40
2022-12-15T13:05:48.774Z,95.69
2022-12-15T13:06:48.464Z,95.31
2022-12-15T13:07:48.481Z,95.21
2022-12-15T13:09:48.513Z,95.40
2022-12-15T13:10:50.712Z,95.21
2022-12-15T13:11:49.017Z,95.40
2022-12-15T13:12:52.599Z,95.31
2022-12-15T13:13:51.260Z,95.31
2022-12-15T13:14:51.701Z,95.40
2022-12-15T13:15:50.939Z,95.50
2022-12-15T13:17:24.783Z,95.59
2022-12-15T13:18:53.095Z,95.40
2022-12-15T13:19:53.893Z,95.21
2022-12-15T13:21:56.635Z,95.40
2022-12-15T13:22:56.644Z,95.31
2022-12-15T13:25:01.122Z,95.03
2022-12-15T13:26:00.663Z,94.74
2022-12-15T13:28:04.654Z,94.74
2022-12-15T13:29:04.663Z,94.56
2022-12-15T13:31:09.173Z,94.27
2022-12-15T13:32:08.728Z,94.18
2022-12-15T13:34:12.670Z,94.08
2022-12-15T13:35:12.672Z,94.08
2022-12-15T13:37:17.159Z,93.61
2022-12-15T13:38:16.684Z,93.13
2022-12-15T13:40:09.611Z,93.23
2022-12-15T13:41:09.613Z,93.23
2022-12-15T13:43:14.106Z,93.13
2022-12-15T13:44:13.621Z,93.04
2022-12-15T13:46:17.709Z,93.13
2022-12-15T13:47:17.625Z,93.13
2022-12-15T13:49:22.104Z,92.76
2022-12-15T13:50:21.640Z,93.04
2022-12-15T13:52:44.286Z,93.23
2022-12-15T13:53:25.652Z,93.42
2022-12-15T13:55:30.126Z,93.61
2022-12-15T13:56:29.651Z,93.61